sensor_id;sensor_type;location;lat;lon;timestamp;P1;durP1;ratioP1;P2;durP2;ratioP2
75508;SDS011;64214;47.250;11.332;2023-03-01T00:00:00;16.00;;;10.85;;
75508;SDS011;64214;47.250;11.332;2023-03-01T00:00:11;16.67;;;11.15;;
75508;SDS011;64214;47.250;11.332;2023-03-01T00:00:23;16.73;;;11.05;;
75508;SDS011;64214;47.250;11.332;2023-03-01T00:00:34;18.58;;;11.15;;
75508;SDS011;64214;47.250;11.332;2023-03-01T00:00:45;19.13;;;11.40;;
75508;SDS011;64214;47.250;11.332;2023-03-01T00:01:00;19.48;;;11.82;;
75508;SDS011;64214;47.250;11.332;2023-03-01T00:01:17;18.45;;;11.73;;
75508;SDS011;64214;47.250;11.332;2023-03-01T00:01:32;18.00;;;11.60;;
75508;SDS011;64214;47.250;11.332;2023-03-01T00:01:43;18.27;;;11.68;;
75508;SDS011;64214;47.250;11.332;2023-03-01T00:01:54;18.65;;;11.43;;
75508;SDS011;64214;47.250;11.332;2023-03-01T00:02:05;18.77;;;11.70;;
75508;SDS011;64214;47.250;11.332;2023-03-01T00:02:17;17.83;;;11.43;;
75508;SDS011;64214;47.250;11.332;2023-03-01T00:02:28;17.30;;;10.98;;
75508;SDS011;64214;47.250;11.332;2023-03-01T00:02:39;17.80;;;10.77;;
75508;SDS011;64214;47.250;11.332;2023-03-01T00:02:50;18.67;;;11.40;;
75508;SDS011;64214;47.250;11.332;2023-03-01T00:03:01;19.57;;;11.87;;
75508;SDS011;64214;47.250;11.332;2023-03-01T00:03:13;18.70;;;11.93;;
75508;SDS011;64214;47.250;11.332;2023-03-01T00:03:24;19.55;;;12.07;;
75508;SDS011;64214;47.250;11.332;2023-03-01T00:03:35;20.02;;;11.93;;
75508;SDS011;64214;47.250;11.332;2023-03-01T00:03:46;20.33;;;11.88;;
75508;SDS011;64214;47.250;11.332;2023-03-01T00:03:58;18.88;;;11.65;;
75508;SDS011;64214;47.250;11.332;2023-03-01T00:04:10;19.70;;;11.85;;
75508;SDS011;64214;47.250;11.332;2023-03-01T00:04:21;19.85;;;11.75;;
75508;SDS011;64214;47.250;11.332;2023-03-01T00:04:32;20.05;;;11.57;;
75508;SDS011;64214;47.250;11.332;2023-03-01T00:04:43;19.15;;;11.63;;
75508;SDS011;64214;47.250;11.332;2023-03-01T00:04:54;19.40;;;11.98;;
75508;SDS011;64214;47.250;11.332;2023-03-01T00:05:05;20.13;;;12.32;;
75508;SDS011;64214;47.250;11.332;2023-03-01T00:05:18;19.38;;;12.43;;
75508;SDS011;64214;47.250;11.332;2023-03-01T00:05:29;20.05;;;12.25;;
75508;SDS011;64214;47.250;11.332;2023-03-01T00:05:46;19.13;;;11.68;;
75508;SDS011;64214;47.250;11.332;2023-03-01T00:05:57;18.90;;;11.95;;
75508;SDS011;64214;47.250;11.332;2023-03-01T00:06:09;18.20;;;12.00;;
75508;SDS011;64214;47.250;11.332;2023-03-01T00:06:20;19.00;;;12.50;;
75508;SDS011;64214;47.250;11.332;2023-03-01T00:06:31;19.52;;;12.23;;
75508;SDS011;64214;47.250;11.332;2023-03-01T00:06:42;19.73;;;12.45;;
75508;SDS011;64214;47.250;11.332;2023-03-01T00:06:56;18.75;;;11.82;;
75508;SDS011;64214;47.250;11.332;2023-03-01T00:07:07;17.25;;;11.25;;
75508;SDS011;64214;47.250;11.332;2023-03-01T00:07:19;17.15;;;11.05;;
75508;SDS011;64214;47.250;11.332;2023-03-01T00:07:30;17.00;;;11.07;;
75508;SDS011;64214;47.250;11.332;2023-03-01T00:07:41;18.55;;;11.65;;
75508;SDS011;64214;47.250;11.332;2023-03-01T00:07:53;18.70;;;11.40;;
75508;SDS011;64214;47.250;11.332;2023-03-01T00:08:04;19.95;;;11.48;;
75508;SDS011;64214;47.250;11.332;2023-03-01T00:08:15;18.77;;;11.25;;
75508;SDS011;64214;47.250;11.332;2023-03-01T00:08:26;19.67;;;11.52;;
75508;SDS011;64214;47.250;11.332;2023-03-01T00:08:39;19.48;;;11.73;;
75508;SDS011;64214;47.250;11.332;2023-03-01T00:08:50;19.52;;;12.10;;
75508;SDS011;64214;47.250;11.332;2023-03-01T00:09:01;19.80;;;11.95;;
75508;SDS011;64214;47.250;11.332;2023-03-01T00:09:13;20.60;;;12.48;;
75508;SDS011;64214;47.250;11.332;2023-03-01T00:09:25;20.27;;;12.25;;
75508;SDS011;64214;47.250;11.332;2023-03-01T00:09:36;19.13;;;11.80;;
75508;SDS011;64214;47.250;11.332;2023-03-01T00:09:48;18.90;;;11.25;;
75508;SDS011;64214;47.250;11.332;2023-03-01T00:10:00;17.75;;;10.98;;
75508;SDS011;64214;47.250;11.332;2023-03-01T00:10:11;19.35;;;11.48;;
75508;SDS011;64214;47.250;11.332;2023-03-01T00:10:22;20.00;;;11.70;;
75508;SDS011;64214;47.250;11.332;2023-03-01T00:10:33;20.92;;;11.60;;
75508;SDS011;64214;47.250;11.332;2023-03-01T00:10:44;18.92;;;10.88;;
75508;SDS011;64214;47.250;11.332;2023-03-01T00:11:02;17.42;;;10.98;;
75508;SDS011;64214;47.250;11.332;2023-03-01T00:11:20;17.63;;;10.90;;
75508;SDS011;64214;47.250;11.332;2023-03-01T00:11:33;20.73;;;11.50;;
75508;SDS011;64214;47.250;11.332;2023-03-01T00:11:44;21.10;;;12.00;;
75508;SDS011;64214;47.250;11.332;2023-03-01T00:11:55;19.10;;;12.03;;
75508;SDS011;64214;47.250;11.332;2023-03-01T00:12:07;17.95;;;11.70;;
75508;SDS011;64214;47.250;11.332;2023-03-01T00:12:18;15.93;;;11.00;;
75508;SDS011;64214;47.250;11.332;2023-03-01T00:12:29;17.30;;;11.45;;
75508;SDS011;64214;47.250;11.332;2023-03-01T00:12:42;19.42;;;11.90;;
75508;SDS011;64214;47.250;11.332;2023-03-01T00:12:53;20.67;;;11.88;;
75508;SDS011;64214;47.250;11.332;2023-03-01T00:13:05;19.50;;;11.50;;
75508;SDS011;64214;47.250;11.332;2023-03-01T00:13:16;17.77;;;11.50;;
75508;SDS011;64214;47.250;11.332;2023-03-01T00:13:28;17.42;;;11.45;;
75508;SDS011;64214;47.250;11.332;2023-03-01T00:13:39;17.52;;;11.02;;
75508;SDS011;64214;47.250;11.332;2023-03-01T00:13:52;17.48;;;10.80;;
75508;SDS011;64214;47.250;11.332;2023-03-01T00:14:04;17.42;;;10.90;;
75508;SDS011;64214;47.250;11.332;2023-03-01T00:14:17;17.67;;;10.63;;
75508;SDS011;64214;47.250;11.332;2023-03-01T00:14:28;18.83;;;10.77;;
75508;SDS011;64214;47.250;11.332;2023-03-01T00:14:39;20.75;;;11.13;;
75508;SDS011;64214;47.250;11.332;2023-03-01T00:14:50;20.63;;;11.63;;
75508;SDS011;64214;47.250;11.332;2023-03-01T00:15:02;18.70;;;11.73;;
75508;SDS011;64214;47.250;11.332;2023-03-01T00:15:15;19.35;;;12.15;;
75508;SDS011;64214;47.250;11.332;2023-03-01T00:15:26;19.75;;;12.02;;
75508;SDS011;64214;47.250;11.332;2023-03-01T00:15:38;18.92;;;11.40;;
75508;SDS011;64214;47.250;11.332;2023-03-01T00:15:51;18.80;;;11.32;;
75508;SDS011;64214;47.250;11.332;2023-03-01T00:16:03;18.63;;;11.60;;
75508;SDS011;64214;47.250;11.332;2023-03-01T00:16:16;18.67;;;11.73;;
75508;SDS011;64214;47.250;11.332;2023-03-01T00:16:33;18.15;;;11.18;;
75508;SDS011;64214;47.250;11.332;2023-03-01T00:16:45;18.88;;;10.95;;
75508;SDS011;64214;47.250;11.332;2023-03-01T00:16:57;19.10;;;11.00;;
75508;SDS011;64214;47.250;11.332;2023-03-01T00:17:08;18.95;;;11.43;;
75508;SDS011;64214;47.250;11.332;2023-03-01T00:17:20;18.48;;;11.38;;
75508;SDS011;64214;47.250;11.332;2023-03-01T00:17:31;18.27;;;11.20;;
75508;SDS011;64214;47.250;11.332;2023-03-01T00:17:42;17.73;;;10.88;;
75508;SDS011;64214;47.250;11.332;2023-03-01T00:17:53;17.92;;;11.10;;
75508;SDS011;64214;47.250;11.332;2023-03-01T00:18:04;17.77;;;11.25;;
75508;SDS011;64214;47.250;11.332;2023-03-01T00:18:15;17.83;;;11.35;;
75508;SDS011;64214;47.250;11.332;2023-03-01T00:18:26;18.08;;;11.00;;
75508;SDS011;64214;47.250;11.332;2023-03-01T00:18:38;17.90;;;10.85;;
75508;SDS011;64214;47.250;11.332;2023-03-01T00:18:49;17.05;;;10.77;;
75508;SDS011;64214;47.250;11.332;2023-03-01T00:19:01;16.70;;;11.07;;
75508;SDS011;64214;47.250;11.332;2023-03-01T00:19:14;17.67;;;11.25;;
75508;SDS011;64214;47.250;11.332;2023-03-01T00:19:29;18.42;;;11.65;;
75508;SDS011;64214;47.250;11.332;2023-03-01T00:19:43;18.33;;;11.55;;
75508;SDS011;64214;47.250;11.332;2023-03-01T00:19:54;18.95;;;11.20;;
75508;SDS011;64214;47.250;11.332;2023-03-01T00:20:05;18.77;;;10.95;;
75508;SDS011;64214;47.250;11.332;2023-03-01T00:20:20;18.15;;;11.00;;
75508;SDS011;64214;47.250;11.332;2023-03-01T00:20:31;17.27;;;11.02;;
75508;SDS011;64214;47.250;11.332;2023-03-01T00:20:48;16.65;;;10.93;;
75508;SDS011;64214;47.250;11.332;2023-03-01T00:21:03;18.10;;;11.05;;
75508;SDS011;64214;47.250;11.332;2023-03-01T00:21:14;19.88;;;11.55;;
75508;SDS011;64214;47.250;11.332;2023-03-01T00:21:25;19.42;;;11.93;;
75508;SDS011;64214;47.250;11.332;2023-03-01T00:21:37;17.88;;;11.57;;
75508;SDS011;64214;47.250;11.332;2023-03-01T00:21:48;17.35;;;11.50;;
75508;SDS011;64214;47.250;11.332;2023-03-01T00:21:59;17.35;;;11.27;;
75508;SDS011;64214;47.250;11.332;2023-03-01T00:22:11;17.25;;;11.13;;
75508;SDS011;64214;47.250;11.332;2023-03-01T00:22:22;16.88;;;10.88;;
75508;SDS011;64214;47.250;11.332;2023-03-01T00:22:34;17.23;;;11.32;;
75508;SDS011;64214;47.250;11.332;2023-03-01T00:22:45;17.73;;;11.25;;
75508;SDS011;64214;47.250;11.332;2023-03-01T00:22:56;17.42;;;10.88;;
75508;SDS011;64214;47.250;11.332;2023-03-01T00:23:07;17.67;;;10.75;;
75508;SDS011;64214;47.250;11.332;2023-03-01T00:23:18;17.58;;;10.88;;
75508;SDS011;64214;47.250;11.332;2023-03-01T00:23:30;18.13;;;11.02;;
75508;SDS011;64214;47.250;11.332;2023-03-01T00:23:41;17.48;;;10.88;;
75508;SDS011;64214;47.250;11.332;2023-03-01T00:23:53;17.50;;;11.05;;
75508;SDS011;64214;47.250;11.332;2023-03-01T00:24:05;18.60;;;11.52;;
75508;SDS011;64214;47.250;11.332;2023-03-01T00:24:16;19.63;;;11.98;;
75508;SDS011;64214;47.250;11.332;2023-03-01T00:24:27;17.75;;;11.55;;
75508;SDS011;64214;47.250;11.332;2023-03-01T00:24:39;16.63;;;11.18;;
75508;SDS011;64214;47.250;11.332;2023-03-01T00:24:50;16.25;;;10.63;;
75508;SDS011;64214;47.250;11.332;2023-03-01T00:25:01;17.25;;;10.80;;
75508;SDS011;64214;47.250;11.332;2023-03-01T00:25:12;17.27;;;10.82;;
75508;SDS011;64214;47.250;11.332;2023-03-01T00:25:23;17.45;;;11.30;;
75508;SDS011;64214;47.250;11.332;2023-03-01T00:25:40;17.58;;;11.82;;
75508;SDS011;64214;47.250;11.332;2023-03-01T00:25:53;18.52;;;12.05;;
75508;SDS011;64214;47.250;11.332;2023-03-01T00:26:06;18.42;;;11.60;;
75508;SDS011;64214;47.250;11.332;2023-03-01T00:26:19;18.15;;;11.82;;
75508;SDS011;64214;47.250;11.332;2023-03-01T00:26:31;17.35;;;11.25;;
75508;SDS011;64214;47.250;11.332;2023-03-01T00:26:45;17.73;;;11.70;;
75508;SDS011;64214;47.250;11.332;2023-03-01T00:26:57;18.40;;;11.50;;
75508;SDS011;64214;47.250;11.332;2023-03-01T00:27:08;18.20;;;11.27;;
75508;SDS011;64214;47.250;11.332;2023-03-01T00:27:19;17.77;;;10.80;;
75508;SDS011;64214;47.250;11.332;2023-03-01T00:27:30;18.05;;;10.70;;
75508;SDS011;64214;47.250;11.332;2023-03-01T00:27:41;18.63;;;11.18;;
75508;SDS011;64214;47.250;11.332;2023-03-01T00:27:52;18.25;;;11.18;;
75508;SDS011;64214;47.250;11.332;2023-03-01T00:28:04;17.92;;;11.77;;
75508;SDS011;64214;47.250;11.332;2023-03-01T00:28:15;17.70;;;11.98;;
75508;SDS011;64214;47.250;11.332;2023-03-01T00:28:26;16.95;;;11.75;;
75508;SDS011;64214;47.250;11.332;2023-03-01T00:28:38;17.75;;;11.68;;
75508;SDS011;64214;47.250;11.332;2023-03-01T00:28:49;18.23;;;11.48;;
75508;SDS011;64214;47.250;11.332;2023-03-01T00:29:00;18.65;;;11.50;;
75508;SDS011;64214;47.250;11.332;2023-03-01T00:29:11;16.67;;;11.10;;
75508;SDS011;64214;47.250;11.332;2023-03-01T00:29:23;16.65;;;11.13;;
75508;SDS011;64214;47.250;11.332;2023-03-01T00:29:35;17.55;;;11.07;;
75508;SDS011;64214;47.250;11.332;2023-03-01T00:29:46;18.60;;;11.02;;
75508;SDS011;64214;47.250;11.332;2023-03-01T00:29:57;17.27;;;10.80;;
75508;SDS011;64214;47.250;11.332;2023-03-01T00:30:09;18.20;;;10.98;;
75508;SDS011;64214;47.250;11.332;2023-03-01T00:30:21;18.37;;;11.23;;
75508;SDS011;64214;47.250;11.332;2023-03-01T00:30:32;18.07;;;10.97;;
75508;SDS011;64214;47.250;11.332;2023-03-01T00:30:43;18.10;;;11.02;;
75508;SDS011;64214;47.250;11.332;2023-03-01T00:30:55;18.67;;;11.45;;
75508;SDS011;64214;47.250;11.332;2023-03-01T00:31:07;18.77;;;11.38;;
75508;SDS011;64214;47.250;11.332;2023-03-01T00:31:27;17.30;;;10.73;;
75508;SDS011;64214;47.250;11.332;2023-03-01T00:31:39;17.30;;;11.02;;
75508;SDS011;64214;47.250;11.332;2023-03-01T00:31:51;16.90;;;11.10;;
75508;SDS011;64214;47.250;11.332;2023-03-01T00:32:02;17.35;;;11.57;;
75508;SDS011;64214;47.250;11.332;2023-03-01T00:32:13;16.90;;;11.75;;
75508;SDS011;64214;47.250;11.332;2023-03-01T00:32:24;17.00;;;11.85;;
75508;SDS011;64214;47.250;11.332;2023-03-01T00:32:35;17.20;;;11.27;;
75508;SDS011;64214;47.250;11.332;2023-03-01T00:32:46;18.67;;;11.45;;
75508;SDS011;64214;47.250;11.332;2023-03-01T00:32:57;19.20;;;11.63;;
75508;SDS011;64214;47.250;11.332;2023-03-01T00:33:08;20.65;;;12.20;;
75508;SDS011;64214;47.250;11.332;2023-03-01T00:33:19;19.67;;;12.02;;
75508;SDS011;64214;47.250;11.332;2023-03-01T00:33:31;19.23;;;11.30;;
75508;SDS011;64214;47.250;11.332;2023-03-01T00:33:42;18.20;;;10.93;;
75508;SDS011;64214;47.250;11.332;2023-03-01T00:33:54;18.27;;;11.20;;
75508;SDS011;64214;47.250;11.332;2023-03-01T00:34:09;17.35;;;10.73;;
75508;SDS011;64214;47.250;11.332;2023-03-01T00:34:20;17.00;;;10.48;;
75508;SDS011;64214;47.250;11.332;2023-03-01T00:34:32;17.27;;;10.52;;
75508;SDS011;64214;47.250;11.332;2023-03-01T00:34:43;17.38;;;10.48;;
75508;SDS011;64214;47.250;11.332;2023-03-01T00:35:04;17.70;;;10.90;;
75508;SDS011;64214;47.250;11.332;2023-03-01T00:35:16;17.77;;;11.02;;
75508;SDS011;64214;47.250;11.332;2023-03-01T00:35:27;17.38;;;10.93;;
75508;SDS011;64214;47.250;11.332;2023-03-01T00:35:38;16.77;;;11.25;;
75508;SDS011;64214;47.250;11.332;2023-03-01T00:35:50;16.38;;;11.25;;
75508;SDS011;64214;47.250;11.332;2023-03-01T00:36:01;17.33;;;11.48;;
75508;SDS011;64214;47.250;11.332;2023-03-01T00:36:13;17.95;;;11.90;;
75508;SDS011;64214;47.250;11.332;2023-03-01T00:36:26;17.45;;;11.65;;
75508;SDS011;64214;47.250;11.332;2023-03-01T00:36:38;16.80;;;11.00;;
75508;SDS011;64214;47.250;11.332;2023-03-01T00:36:49;17.38;;;11.13;;
75508;SDS011;64214;47.250;11.332;2023-03-01T00:37:00;16.98;;;11.02;;
75508;SDS011;64214;47.250;11.332;2023-03-01T00:37:15;17.38;;;11.07;;
75508;SDS011;64214;47.250;11.332;2023-03-01T00:37:29;17.80;;;10.95;;
75508;SDS011;64214;47.250;11.332;2023-03-01T00:37:40;18.70;;;11.75;;
75508;SDS011;64214;47.250;11.332;2023-03-01T00:37:52;17.67;;;11.52;;
75508;SDS011;64214;47.250;11.332;2023-03-01T00:38:08;17.10;;;10.95;;
75508;SDS011;64214;47.250;11.332;2023-03-01T00:38:19;16.48;;;10.63;;
75508;SDS011;64214;47.250;11.332;2023-03-01T00:38:34;16.60;;;10.70;;
75508;SDS011;64214;47.250;11.332;2023-03-01T00:38:46;17.35;;;11.45;;
75508;SDS011;64214;47.250;11.332;2023-03-01T00:38:57;17.10;;;11.35;;
75508;SDS011;64214;47.250;11.332;2023-03-01T00:39:11;16.60;;;10.90;;
75508;SDS011;64214;47.250;11.332;2023-03-01T00:39:24;17.77;;;11.00;;
75508;SDS011;64214;47.250;11.332;2023-03-01T00:39:35;17.67;;;11.10;;
75508;SDS011;64214;47.250;11.332;2023-03-01T00:39:46;17.88;;;11.13;;
75508;SDS011;64214;47.250;11.332;2023-03-01T00:39:58;17.92;;;11.52;;
75508;SDS011;64214;47.250;11.332;2023-03-01T00:40:09;17.27;;;11.60;;
75508;SDS011;64214;47.250;11.332;2023-03-01T00:40:21;17.17;;;11.40;;
75508;SDS011;64214;47.250;11.332;2023-03-01T00:40:33;17.77;;;11.30;;
75508;SDS011;64214;47.250;11.332;2023-03-01T00:40:45;19.05;;;11.20;;
75508;SDS011;64214;47.250;11.332;2023-03-01T00:41:02;18.65;;;11.07;;
75508;SDS011;64214;47.250;11.332;2023-03-01T00:41:15;17.10;;;11.13;;
75508;SDS011;64214;47.250;11.332;2023-03-01T00:41:27;17.38;;;11.02;;
75508;SDS011;64214;47.250;11.332;2023-03-01T00:41:38;18.27;;;11.00;;
75508;SDS011;64214;47.250;11.332;2023-03-01T00:41:50;19.77;;;11.30;;
75508;SDS011;64214;47.250;11.332;2023-03-01T00:42:01;20.92;;;11.75;;
75508;SDS011;64214;47.250;11.332;2023-03-01T00:42:13;20.10;;;11.70;;
75508;SDS011;64214;47.250;11.332;2023-03-01T00:42:24;17.92;;;11.05;;
75508;SDS011;64214;47.250;11.332;2023-03-01T00:42:35;17.08;;;10.85;;
75508;SDS011;64214;47.250;11.332;2023-03-01T00:42:46;17.92;;;11.18;;
75508;SDS011;64214;47.250;11.332;2023-03-01T00:42:57;17.65;;;11.68;;
75508;SDS011;64214;47.250;11.332;2023-03-01T00:43:08;17.08;;;11.55;;
75508;SDS011;64214;47.250;11.332;2023-03-01T00:43:21;16.63;;;11.40;;
75508;SDS011;64214;47.250;11.332;2023-03-01T00:43:32;17.17;;;11.25;;
75508;SDS011;64214;47.250;11.332;2023-03-01T00:43:47;18.27;;;11.45;;
75508;SDS011;64214;47.250;11.332;2023-03-01T00:43:58;17.55;;;10.98;;
75508;SDS011;64214;47.250;11.332;2023-03-01T00:44:09;18.00;;;11.63;;
75508;SDS011;64214;47.250;11.332;2023-03-01T00:44:21;18.00;;;11.57;;
75508;SDS011;64214;47.250;11.332;2023-03-01T00:44:32;18.15;;;11.63;;
75508;SDS011;64214;47.250;11.332;2023-03-01T00:44:44;17.80;;;11.55;;
75508;SDS011;64214;47.250;11.332;2023-03-01T00:44:56;18.80;;;11.70;;
75508;SDS011;64214;47.250;11.332;2023-03-01T00:45:07;19.42;;;11.43;;
75508;SDS011;64214;47.250;11.332;2023-03-01T00:45:18;17.60;;;10.70;;
75508;SDS011;64214;47.250;11.332;2023-03-01T00:45:29;17.42;;;10.88;;
75508;SDS011;64214;47.250;11.332;2023-03-01T00:45:43;17.77;;;11.20;;
75508;SDS011;64214;47.250;11.332;2023-03-01T00:45:55;18.00;;;11.02;;
75508;SDS011;64214;47.250;11.332;2023-03-01T00:46:07;17.77;;;10.80;;
75508;SDS011;64214;47.250;11.332;2023-03-01T00:46:24;18.80;;;11.43;;
75508;SDS011;64214;47.250;11.332;2023-03-01T00:46:37;18.80;;;11.57;;
75508;SDS011;64214;47.250;11.332;2023-03-01T00:46:49;19.40;;;11.95;;
75508;SDS011;64214;47.250;11.332;2023-03-01T00:47:00;17.35;;;11.40;;
75508;SDS011;64214;47.250;11.332;2023-03-01T00:47:11;18.13;;;11.63;;
75508;SDS011;64214;47.250;11.332;2023-03-01T00:47:22;17.17;;;11.55;;
75508;SDS011;64214;47.250;11.332;2023-03-01T00:47:33;17.75;;;11.60;;
75508;SDS011;64214;47.250;11.332;2023-03-01T00:47:44;17.25;;;11.38;;
75508;SDS011;64214;47.250;11.332;2023-03-01T00:47:55;17.00;;;10.90;;
75508;SDS011;64214;47.250;11.332;2023-03-01T00:48:07;16.27;;;11.07;;
75508;SDS011;64214;47.250;11.332;2023-03-01T00:48:18;16.77;;;11.07;;
75508;SDS011;64214;47.250;11.332;2023-03-01T00:48:29;18.15;;;11.25;;
75508;SDS011;64214;47.250;11.332;2023-03-01T00:48:40;18.17;;;10.98;;
75508;SDS011;64214;47.250;11.332;2023-03-01T00:48:51;17.38;;;11.25;;
75508;SDS011;64214;47.250;11.332;2023-03-01T00:49:03;17.38;;;11.55;;
75508;SDS011;64214;47.250;11.332;2023-03-01T00:49:15;17.65;;;11.70;;
75508;SDS011;64214;47.250;11.332;2023-03-01T00:49:26;17.92;;;11.55;;
75508;SDS011;64214;47.250;11.332;2023-03-01T00:49:38;17.83;;;11.30;;
75508;SDS011;64214;47.250;11.332;2023-03-01T00:49:49;17.50;;;11.00;;
75508;SDS011;64214;47.250;11.332;2023-03-01T00:50:00;18.35;;;11.30;;
75508;SDS011;64214;47.250;11.332;2023-03-01T00:50:11;19.98;;;11.77;;
75508;SDS011;64214;47.250;11.332;2023-03-01T00:50:23;20.30;;;11.68;;
75508;SDS011;64214;47.250;11.332;2023-03-01T00:50:34;18.23;;;11.40;;
75508;SDS011;64214;47.250;11.332;2023-03-01T00:50:45;17.15;;;11.02;;
75508;SDS011;64214;47.250;11.332;2023-03-01T00:50:56;17.42;;;11.35;;
75508;SDS011;64214;47.250;11.332;2023-03-01T00:51:08;18.50;;;11.47;;
75508;SDS011;64214;47.250;11.332;2023-03-01T00:51:22;18.42;;;11.60;;
75508;SDS011;64214;47.250;11.332;2023-03-01T00:51:34;17.33;;;11.57;;
75508;SDS011;64214;47.250;11.332;2023-03-01T00:51:46;16.67;;;11.20;;
75508;SDS011;64214;47.250;11.332;2023-03-01T00:51:57;18.77;;;11.63;;
75508;SDS011;64214;47.250;11.332;2023-03-01T00:52:08;19.98;;;12.00;;
75508;SDS011;64214;47.250;11.332;2023-03-01T00:52:19;19.98;;;12.05;;
75508;SDS011;64214;47.250;11.332;2023-03-01T00:52:30;18.40;;;11.85;;
75508;SDS011;64214;47.250;11.332;2023-03-01T00:52:41;17.98;;;11.85;;
75508;SDS011;64214;47.250;11.332;2023-03-01T00:52:53;17.77;;;11.88;;
75508;SDS011;64214;47.250;11.332;2023-03-01T00:53:06;17.02;;;11.68;;
75508;SDS011;64214;47.250;11.332;2023-03-01T00:53:17;16.63;;;11.18;;
75508;SDS011;64214;47.250;11.332;2023-03-01T00:53:28;17.52;;;11.23;;
75508;SDS011;64214;47.250;11.332;2023-03-01T00:53:39;18.75;;;11.65;;
75508;SDS011;64214;47.250;11.332;2023-03-01T00:53:51;18.73;;;11.75;;
75508;SDS011;64214;47.250;11.332;2023-03-01T00:54:04;18.02;;;11.35;;
75508;SDS011;64214;47.250;11.332;2023-03-01T00:54:15;17.95;;;11.30;;
75508;SDS011;64214;47.250;11.332;2023-03-01T00:54:26;18.52;;;11.75;;
75508;SDS011;64214;47.250;11.332;2023-03-01T00:54:37;19.00;;;12.25;;
75508;SDS011;64214;47.250;11.332;2023-03-01T00:54:51;19.67;;;12.10;;
75508;SDS011;64214;47.250;11.332;2023-03-01T00:55:04;18.02;;;11.27;;
75508;SDS011;64214;47.250;11.332;2023-03-01T00:55:16;17.38;;;11.23;;
75508;SDS011;64214;47.250;11.332;2023-03-01T00:55:27;17.40;;;11.20;;
75508;SDS011;64214;47.250;11.332;2023-03-01T00:55:38;16.80;;;11.13;;
75508;SDS011;64214;47.250;11.332;2023-03-01T00:55:50;17.48;;;11.15;;
75508;SDS011;64214;47.250;11.332;2023-03-01T00:56:01;17.73;;;11.37;;
75508;SDS011;64214;47.250;11.332;2023-03-01T00:56:14;18.02;;;11.50;;
75508;SDS011;64214;47.250;11.332;2023-03-01T00:56:25;18.43;;;12.13;;
75508;SDS011;64214;47.250;11.332;2023-03-01T00:56:37;20.27;;;12.57;;
75508;SDS011;64214;47.250;11.332;2023-03-01T00:56:48;20.20;;;12.38;;
75508;SDS011;64214;47.250;11.332;2023-03-01T00:56:59;20.20;;;12.50;;
75508;SDS011;64214;47.250;11.332;2023-03-01T00:57:10;18.85;;;12.00;;
75508;SDS011;64214;47.250;11.332;2023-03-01T00:57:21;18.38;;;11.82;;
75508;SDS011;64214;47.250;11.332;2023-03-01T00:57:32;17.38;;;11.35;;
75508;SDS011;64214;47.250;11.332;2023-03-01T00:57:44;18.50;;;11.63;;
75508;SDS011;64214;47.250;11.332;2023-03-01T00:57:55;17.85;;;11.60;;
75508;SDS011;64214;47.250;11.332;2023-03-01T00:58:06;18.20;;;11.95;;
75508;SDS011;64214;47.250;11.332;2023-03-01T00:58:17;17.92;;;11.75;;
75508;SDS011;64214;47.250;11.332;2023-03-01T00:58:29;18.02;;;11.50;;
75508;SDS011;64214;47.250;11.332;2023-03-01T00:58:41;17.63;;;11.18;;
75508;SDS011;64214;47.250;11.332;2023-03-01T00:58:52;17.80;;;11.05;;
75508;SDS011;64214;47.250;11.332;2023-03-01T00:59:04;17.33;;;10.95;;
75508;SDS011;64214;47.250;11.332;2023-03-01T00:59:15;16.60;;;10.68;;
75508;SDS011;64214;47.250;11.332;2023-03-01T00:59:26;16.10;;;10.70;;
75508;SDS011;64214;47.250;11.332;2023-03-01T00:59:37;16.80;;;11.15;;
75508;SDS011;64214;47.250;11.332;2023-03-01T00:59:48;16.95;;;11.25;;
75508;SDS011;64214;47.250;11.332;2023-03-01T00:59:59;17.88;;;11.45;;
75508;SDS011;64214;47.250;11.332;2023-03-01T01:00:10;17.95;;;11.10;;
75508;SDS011;64214;47.250;11.332;2023-03-01T01:00:22;16.52;;;10.77;;
75508;SDS011;64214;47.250;11.332;2023-03-01T01:00:34;16.03;;;11.03;;
75508;SDS011;64214;47.250;11.332;2023-03-01T01:00:45;16.60;;;11.10;;
75508;SDS011;64214;47.250;11.332;2023-03-01T01:00:56;17.20;;;11.52;;
75508;SDS011;64214;47.250;11.332;2023-03-01T01:01:10;17.00;;;11.27;;
75508;SDS011;64214;47.250;11.332;2023-03-01T01:01:32;17.27;;;10.95;;
75508;SDS011;64214;47.250;11.332;2023-03-01T01:01:43;18.10;;;11.70;;
75508;SDS011;64214;47.250;11.332;2023-03-01T01:01:54;17.30;;;11.33;;
75508;SDS011;64214;47.250;11.332;2023-03-01T01:02:06;17.13;;;11.35;;
75508;SDS011;64214;47.250;11.332;2023-03-01T01:02:18;16.83;;;11.27;;
75508;SDS011;64214;47.250;11.332;2023-03-01T01:02:31;18.77;;;11.32;;
75508;SDS011;64214;47.250;11.332;2023-03-01T01:02:43;19.75;;;11.32;;
75508;SDS011;64214;47.250;11.332;2023-03-01T01:02:55;19.63;;;11.52;;
75508;SDS011;64214;47.250;11.332;2023-03-01T01:03:06;17.98;;;11.48;;
75508;SDS011;64214;47.250;11.332;2023-03-01T01:03:17;18.15;;;11.32;;
75508;SDS011;64214;47.250;11.332;2023-03-01T01:03:28;16.98;;;11.07;;
75508;SDS011;64214;47.250;11.332;2023-03-01T01:03:39;17.02;;;10.88;;
75508;SDS011;64214;47.250;11.332;2023-03-01T01:03:52;16.90;;;10.77;;
75508;SDS011;64214;47.250;11.332;2023-03-01T01:04:08;17.70;;;10.75;;
75508;SDS011;64214;47.250;11.332;2023-03-01T01:04:21;17.13;;;10.73;;
75508;SDS011;64214;47.250;11.332;2023-03-01T01:04:33;17.23;;;10.90;;
75508;SDS011;64214;47.250;11.332;2023-03-01T01:04:44;17.38;;;11.18;;
75508;SDS011;64214;47.250;11.332;2023-03-01T01:04:55;17.10;;;11.10;;
75508;SDS011;64214;47.250;11.332;2023-03-01T01:05:07;17.45;;;11.50;;
75508;SDS011;64214;47.250;11.332;2023-03-01T01:05:18;18.23;;;11.63;;
75508;SDS011;64214;47.250;11.332;2023-03-01T01:05:34;19.08;;;11.50;;
75508;SDS011;64214;47.250;11.332;2023-03-01T01:05:46;18.90;;;11.57;;
75508;SDS011;64214;47.250;11.332;2023-03-01T01:05:57;19.48;;;12.00;;
75508;SDS011;64214;47.250;11.332;2023-03-01T01:06:12;19.10;;;11.85;;
75508;SDS011;64214;47.250;11.332;2023-03-01T01:06:32;17.95;;;11.68;;
75508;SDS011;64214;47.250;11.332;2023-03-01T01:06:45;17.67;;;11.40;;
75508;SDS011;64214;47.250;11.332;2023-03-01T01:06:56;17.88;;;11.10;;
75508;SDS011;64214;47.250;11.332;2023-03-01T01:07:08;17.60;;;11.00;;
75508;SDS011;64214;47.250;11.332;2023-03-01T01:07:20;18.50;;;11.25;;
75508;SDS011;64214;47.250;11.332;2023-03-01T01:07:31;18.63;;;11.43;;
75508;SDS011;64214;47.250;11.332;2023-03-01T01:07:42;18.33;;;11.48;;
75508;SDS011;64214;47.250;11.332;2023-03-01T01:07:53;18.08;;;11.07;;
75508;SDS011;64214;47.250;11.332;2023-03-01T01:08:04;19.73;;;11.50;;
75508;SDS011;64214;47.250;11.332;2023-03-01T01:08:16;19.55;;;11.73;;
75508;SDS011;64214;47.250;11.332;2023-03-01T01:08:27;19.35;;;11.82;;
75508;SDS011;64214;47.250;11.332;2023-03-01T01:08:38;19.00;;;11.50;;